Time;durP1;ratioP1;P1;durP2;ratioP2;P2;SDS_P1;SDS_P2;PMS_P1;PMS_P2;Temp;Humidity;BMP_temperature;BMP_pressure;BME280_temperature;BME280_humidity;BME280_pressure;Samples;Min_cycle;Max_cycle;Signal;HPM_P1;HPM_P2
2022/12/04 00:01:28;;;;;;;33.30;14.70;;;;;;;;;;5078385;28;20484;-72
2022/12/04 00:03:56;;;;;;;34.07;18.00;;;;;;;;;;5079698;28;20456;-72
2022/12/04 00:06:28;;;;;;;40.80;18.00;;;;;;;;;;5079578;28;20550;-72
2022/12/04 00:08:56;;;;;;;41.37;18.20;;;;;;;;;;5079454;28;20471;-72
2022/12/04 00:11:24;;;;;;;38.07;18.07;;;;;;;;;;5078824;28;20722;-72
2022/12/04 00:13:52;;;;;;;36.20;16.80;;;;;;;;;;5078791;28;20868;-72
2022/12/04 00:16:22;;;;;;;39.73;16.30;;;;;;;;;;5079592;28;20468;-72
2022/12/04 00:18:50;;;;;;;41.20;16.90;;;;;;;;;;5079059;28;20995;-71
2022/12/04 00:21:18;;;;;;;37.27;17.43;;;;;;;;;;5078751;28;20453;-72
2022/12/04 00:23:46;;;;;;;38.20;17.50;;;;;;;;;;5079012;28;20456;-72
2022/12/04 00:26:15;;;;;;;32.17;17.43;;;;;;;;;;5079093;28;20452;-72
2022/12/04 00:28:43;;;;;;;31.37;14.67;;;;;;;;;;5078430;28;20849;-72
2022/12/04 00:31:12;;;;;;;28.43;17.30;;;;;;;;;;5078718;28;20483;-72
2022/12/04 00:33:41;;;;;;;36.57;17.50;;;;;;;;;;5079611;28;20453;-72
2022/12/04 00:36:10;;;;;;;37.40;17.30;;;;;;;;;;5079304;28;20811;-72
2022/12/04 00:38:38;;;;;;;35.07;17.10;;;;;;;;;;5080209;28;20740;-72
2022/12/04 00:41:08;;;;;;;29.93;14.57;;;;;;;;;;5078576;28;20456;-72
2022/12/04 00:43:36;;;;;;;36.40;13.87;;;;;;;;;;5078682;28;20908;-72
2022/12/04 00:46:03;;;;;;;37.77;17.87;;;;;;;;;;5076978;28;20502;-72
2022/12/04 00:48:31;;;;;;;35.00;16.80;;;;;;;;;;5078590;28;20468;-72
2022/12/04 00:51:03;;;;;;;35.40;17.37;;;;;;;;;;5078486;28;20506;-72
2022/12/04 00:53:31;;;;;;;30.80;15.67;;;;;;;;;;5078667;28;20491;-72
2022/12/04 00:56:04;;;;;;;33.00;16.30;;;;;;;;;;5078997;28;20453;-72
2022/12/04 00:58:32;;;;;;;35.60;16.30;;;;;;;;;;5078718;28;20456;-72
2022/12/04 01:01:03;;;;;;;38.47;16.57;;;;;;;;;;5077961;28;20445;-72
2022/12/04 01:03:30;;;;;;;32.33;17.13;;;;;;;;;;5078558;28;20508;-72
2022/12/04 01:05:58;;;;;;;45.63;19.77;;;;;;;;;;5078361;28;20453;-72
2022/12/04 01:08:29;;;;;;;30.80;15.90;;;;;;;;;;5078005;28;20471;-72
2022/12/04 01:10:58;;;;;;;29.70;16.20;;;;;;;;;;5079119;28;20821;-72
2022/12/04 01:13:27;;;;;;;35.70;18.87;;;;;;;;;;5078752;28;20461;-73
2022/12/04 01:15:55;;;;;;;33.73;16.10;;;;;;;;;;5077680;28;20463;-72
2022/12/04 01:18:23;;;;;;;31.37;15.40;;;;;;;;;;5078732;28;20456;-72
2022/12/04 01:20:51;;;;;;;26.90;14.70;;;;;;;;;;5077797;28;20534;-72
2022/12/04 01:23:19;;;;;;;25.33;13.60;;;;;;;;;;5077539;28;20575;-72
2022/12/04 01:25:55;;;;;;;33.43;16.97;;;;;;;;;;5077976;28;20453;-72
2022/12/04 01:28:26;;;;;;;41.67;19.60;;;;;;;;;;5078302;28;20478;-72
2022/12/04 01:31:00;;;;;;;37.13;14.50;;;;;;;;;;5078141;28;20510;-72
2022/12/04 01:33:28;;;;;;;37.50;18.90;;;;;;;;;;5077725;28;20859;-72
2022/12/04 01:35:56;;;;;;;34.80;16.40;;;;;;;;;;5078846;28;20733;-72
2022/12/04 01:38:24;;;;;;;37.63;15.93;;;;;;;;;;5078603;28;20456;-72
2022/12/04 01:40:52;;;;;;;28.33;16.00;;;;;;;;;;5078316;28;20449;-72
2022/12/04 01:43:25;;;;;;;32.33;14.80;;;;;;;;;;5077775;28;20496;-72
2022/12/04 01:45:53;;;;;;;31.87;14.33;;;;;;;;;;5078056;28;20500;-72
2022/12/04 01:48:24;;;;;;;35.57;18.07;;;;;;;;;;5078641;28;20468;-72
2022/12/04 01:50:55;;;;;;;33.80;18.10;;;;;;;;;;5077855;28;20456;-72
2022/12/04 01:53:22;;;;;;;28.50;14.40;;;;;;;;;;5078154;28;20483;-72
2022/12/04 01:55:50;;;;;;;33.60;16.60;;;;;;;;;;5079323;28;20448;-72
2022/12/04 01:58:19;;;;;;;39.87;17.63;;;;;;;;;;5078396;28;20460;-72
2022/12/04 02:00:49;;;;;;;31.80;15.30;;;;;;;;;;5077715;28;20466;-72
2022/12/04 02:03:17;;;;;;;36.50;14.87;;;;;;;;;;5077231;28;20480;-72
2022/12/04 02:05:45;;;;;;;34.10;15.30;;;;;;;;;;5077565;28;20471;-72
2022/12/04 02:08:12;;;;;;;27.47;13.73;;;;;;;;;;5076847;28;20721;-72
2022/12/04 02:10:43;;;;;;;29.10;16.13;;;;;;;;;;5076629;28;20857;-71
2022/12/04 02:13:13;;;;;;;23.63;12.77;;;;;;;;;;5071305;28;20454;-72
2022/12/04 02:15:46;;;;;;;36.70;16.63;;;;;;;;;;5077516;28;20495;-72
2022/12/04 02:18:19;;;;;;;30.30;15.53;;;;;;;;;;5077233;28;20471;-73
2022/12/04 02:20:50;;;;;;;31.43;14.87;;;;;;;;;;5057820;28;20464;-72
2022/12/04 02:23:33;;;;;;;36.50;18.67;;;;;;;;;;5056598;28;20477;-72
2022/12/04 02:26:17;;;;;;;29.00;14.37;;;;;;;;;;5054488;28;20548;-72
2022/12/04 02:28:48;;;;;;;28.33;14.70;;;;;;;;;;5056819;28;20878;-72
2022/12/04 02:31:19;;;;;;;35.53;15.70;;;;;;;;;;5056434;28;20441;-72
2022/12/04 02:33:49;;;;;;;36.73;16.00;;;;;;;;;;5057480;28;20511;-72
2022/12/04 02:36:20;;;;;;;42.23;18.30;;;;;;;;;;5056929;28;20446;-72
2022/12/04 02:38:51;;;;;;;31.90;15.90;;;;;;;;;;5056112;28;20794;-72
2022/12/04 02:41:21;;;;;;;32.47;15.37;;;;;;;;;;5057147;28;20476;-72
2022/12/04 02:43:52;;;;;;;37.23;16.80;;;;;;;;;;5056471;28;20548;-73
2022/12/04 02:46:22;;;;;;;28.00;14.73;;;;;;;;;;5057108;28;20540;-72
2022/12/04 02:48:51;;;;;;;36.73;17.30;;;;;;;;;;5056639;28;20544;-72
2022/12/04 02:51:19;;;;;;;37.30;17.47;;;;;;;;;;5056620;28;20449;-72
2022/12/04 02:53:49;;;;;;;37.17;17.27;;;;;;;;;;5056805;28;20453;-72
2022/12/04 02:56:20;;;;;;;38.03;16.00;;;;;;;;;;5057599;28;20493;-72
2022/12/04 02:58:49;;;;;;;40.13;17.83;;;;;;;;;;5056546;28;20556;-73
2022/12/04 03:01:20;;;;;;;36.43;15.63;;;;;;;;;;5056096;28;20519;-72
2022/12/04 03:03:49;;;;;;;33.77;15.43;;;;;;;;;;5056617;28;20547;-72
2022/12/04 03:06:20;;;;;;;37.20;17.07;;;;;;;;;;5056698;28;20536;-72
2022/12/04 03:08:50;;;;;;;39.40;16.83;;;;;;;;;;5056718;28;20721;-72
2022/12/04 03:11:19;;;;;;;37.83;17.50;;;;;;;;;;5056934;28;20456;-72
2022/12/04 03:13:48;;;;;;;40.37;20.43;;;;;;;;;;5057360;28;20453;-73
2022/12/04 03:16:20;;;;;;;43.40;18.70;;;;;;;;;;5056417;28;20526;-72
2022/12/04 03:18:53;;;;;;;39.27;18.10;;;;;;;;;;5056619;28;20475;-71
2022/12/04 03:21:24;;;;;;;39.20;18.60;;;;;;;;;;5056662;28;20449;-71
2022/12/04 03:23:54;;;;;;;37.40;18.17;;;;;;;;;;5056494;28;20485;-71
2022/12/04 03:26:26;;;;;;;43.80;19.57;;;;;;;;;;5056519;28;20773;-71
2022/12/04 03:28:58;;;;;;;40.23;18.37;;;;;;;;;;5056482;28;20453;-72
2022/12/04 03:31:32;;;;;;;41.50;17.50;;;;;;;;;;5056282;28;20853;-72
2022/12/04 03:34:02;;;;;;;36.50;17.23;;;;;;;;;;5055989;28;20732;-72
2022/12/04 03:36:33;;;;;;;43.33;17.33;;;;;;;;;;5056751;28;21003;-72
2022/12/04 03:39:06;;;;;;;36.47;17.23;;;;;;;;;;5056001;28;21072;-72
2022/12/04 03:41:41;;;;;;;38.87;18.30;;;;;;;;;;5056840;28;20457;-72
2022/12/04 03:44:12;;;;;;;37.70;18.57;;;;;;;;;;5056399;28;20500;-72
2022/12/04 03:46:45;;;;;;;40.20;18.23;;;;;;;;;;5056108;28;20748;-72
2022/12/04 03:49:16;;;;;;;38.37;19.63;;;;;;;;;;5056127;28;20453;-72
2022/12/04 03:51:45;;;;;;;39.10;19.40;;;;;;;;;;5056099;28;20465;-72
2022/12/04 03:54:15;;;;;;;37.97;19.43;;;;;;;;;;5056308;28;20468;-72
2022/12/04 03:56:47;;;;;;;38.20;18.40;;;;;;;;;;5055106;28;20470;-72
2022/12/04 03:59:18;;;;;;;39.47;18.67;;;;;;;;;;5056821;28;20468;-72
2022/12/04 04:01:50;;;;;;;39.97;20.30;;;;;;;;;;5056170;28;20896;-72
2022/12/04 04:04:23;;;;;;;37.60;17.50;;;;;;;;;;5056129;28;20580;-72
2022/12/04 04:06:53;;;;;;;43.47;20.30;;;;;;;;;;5057305;28;20457;-72
2022/12/04 04:09:23;;;;;;;42.40;18.60;;;;;;;;;;5055401;28;20457;-72
2022/12/04 04:11:55;;;;;;;42.47;20.67;;;;;;;;;;5057009;28;20737;-72
2022/12/04 04:25:31;;;;;;;45.60;18.13;;;;;;;;;;5059401;28;20431;-72
2022/12/04 04:27:59;;;;;;;46.93;19.33;;;;;;;;;;5058733;28;20508;-72
2022/12/04 04:30:28;;;;;;;45.53;17.30;;;;;;;;;;5059516;28;20664;-72
2022/12/04 04:32:59;;;;;;;39.90;18.97;;;;;;;;;;5059169;28;20446;-72
2022/12/04 04:35:31;;;;;;;37.20;18.43;;;;;;;;;;5059586;28;20461;-72
2022/12/04 04:38:02;;;;;;;48.03;20.43;;;;;;;;;;5059177;28;20464;-71
2022/12/04 04:40:33;;;;;;;42.07;21.53;;;;;;;;;;5058105;28;20461;-72
2022/12/04 04:43:06;;;;;;;41.63;18.23;;;;;;;;;;5059424;28;20921;-72
2022/12/04 04:45:36;;;;;;;42.83;19.70;;;;;;;;;;5059024;28;20456;-73
2022/12/04 04:48:07;;;;;;;40.93;20.83;;;;;;;;;;5058511;28;20461;-72
2022/12/04 04:50:39;;;;;;;41.47;19.90;;;;;;;;;;5059028;28;20800;-72
2022/12/04 04:53:09;;;;;;;44.10;18.87;;;;;;;;;;5059017;28;20544;-73
2022/12/04 04:55:37;;;;;;;40.10;17.10;;;;;;;;;;5058326;28;20556;-72
2022/12/04 04:58:09;;;;;;;44.50;17.10;;;;;;;;;;5058726;28;20450;-72
2022/12/04 05:00:37;;;;;;;37.53;18.07;;;;;;;;;;5058750;28;20462;-72
2022/12/04 05:03:08;;;;;;;45.70;22.07;;;;;;;;;;5058416;28;20929;-72
2022/12/04 05:05:39;;;;;;;47.27;19.40;;;;;;;;;;5058738;28;20469;-72
2022/12/04 05:08:07;;;;;;;39.27;19.40;;;;;;;;;;5059136;28;20475;-72
2022/12/04 05:10:37;;;;;;;39.53;20.13;;;;;;;;;;5058894;28;20461;-72
2022/12/04 05:13:06;;;;;;;34.47;18.63;;;;;;;;;;5058336;28;20445;-72
2022/12/04 05:15:36;;;;;;;41.37;18.70;;;;;;;;;;5057907;28;20551;-72
2022/12/04 05:18:04;;;;;;;37.07;18.87;;;;;;;;;;5058439;28;20460;-72
2022/12/04 05:20:32;;;;;;;40.40;19.50;;;;;;;;;;5058504;28;20458;-72
2022/12/04 05:23:00;;;;;;;44.93;19.30;;;;;;;;;;5057992;28;20758;-72
2022/12/04 05:25:28;;;;;;;39.13;17.70;;;;;;;;;;5058210;28;20453;-72
2022/12/04 05:27:55;;;;;;;42.97;19.20;;;;;;;;;;5058589;28;20453;-72
2022/12/04 05:30:23;;;;;;;39.27;16.97;;;;;;;;;;5057751;28;20523;-72
2022/12/04 05:32:51;;;;;;;37.80;18.20;;;;;;;;;;5058309;28;20460;-73
2022/12/04 05:35:18;;;;;;;37.83;18.40;;;;;;;;;;5057831;28;20481;-72
2022/12/04 05:37:47;;;;;;;48.23;18.97;;;;;;;;;;5058745;28;20837;-71
2022/12/04 05:40:15;;;;;;;41.13;19.90;;;;;;;;;;5057531;28;20449;-72
2022/12/04 05:42:43;;;;;;;44.43;18.97;;;;;;;;;;5058077;28;20453;-71
2022/12/04 05:45:14;;;;;;;38.87;19.10;;;;;;;;;;5057592;28;20481;-72
2022/12/04 05:47:42;;;;;;;43.43;18.57;;;;;;;;;;5058049;28;20489;-73
2022/12/04 05:50:10;;;;;;;34.00;19.77;;;;;;;;;;5057720;28;20721;-72
2022/12/04 05:52:38;;;;;;;38.80;16.53;;;;;;;;;;5057447;28;20446;-72
2022/12/04 05:55:10;;;;;;;37.30;18.50;;;;;;;;;;5057176;28;20480;-72
2022/12/04 05:57:38;;;;;;;54.00;21.37;;;;;;;;;;5057386;28;20502;-72
2022/12/04 06:00:06;;;;;;;33.87;16.57;;;;;;;;;;5057812;28;20467;-72
2022/12/04 06:02:36;;;;;;;34.07;16.73;;;;;;;;;;5057321;28;20460;-72
2022/12/04 06:05:06;;;;;;;41.03;19.57;;;;;;;;;;5057657;28;20481;-72
2022/12/04 06:07:36;;;;;;;39.20;17.93;;;;;;;;;;5056925;28;20453;-72
2022/12/04 06:10:04;;;;;;;42.80;17.73;;;;;;;;;;5057036;28;20524;-72
2022/12/04 06:12:33;;;;;;;41.60;17.87;;;;;;;;;;5056988;28;20874;-72
2022/12/04 06:15:04;;;;;;;36.80;17.67;;;;;;;;;;5057699;28;20471;-72
2022/12/04 06:17:31;;;;;;;35.40;19.43;;;;;;;;;;5057819;28;20453;-72
2022/12/04 06:19:59;;;;;;;28.57;15.27;;;;;;;;;;5057852;28;20445;-72
2022/12/04 06:22:27;;;;;;;38.63;17.23;;;;;;;;;;5057138;28;20492;-72
2022/12/04 06:24:56;;;;;;;38.20;17.90;;;;;;;;;;5056054;28;20505;-72
2022/12/04 06:27:24;;;;;;;43.33;19.07;;;;;;;;;;5058060;28;20576;-72
2022/12/04 06:29:54;;;;;;;37.33;17.70;;;;;;;;;;5056535;28;20450;-73
2022/12/04 06:32:21;;;;;;;34.33;16.27;;;;;;;;;;5056117;28;20522;-72
2022/12/04 06:34:51;;;;;;;39.60;17.17;;;;;;;;;;5056885;28;20437;-72
2022/12/04 06:37:19;;;;;;;37.30;17.47;;;;;;;;;;5057034;28;20715;-72
2022/12/04 06:39:47;;;;;;;39.47;19.33;;;;;;;;;;5056510;28;20461;-72
2022/12/04 06:42:14;;;;;;;39.87;19.33;;;;;;;;;;5056128;28;20584;-72
2022/12/04 06:44:54;;;;;;;41.67;17.60;;;;;;;;;;5056297;28;20492;-72
2022/12/04 06:47:21;;;;;;;42.77;17.83;;;;;;;;;;5056223;28;20784;-72
2022/12/04 06:49:50;;;;;;;35.07;17.70;;;;;;;;;;5056024;28;20445;-72
2022/12/04 06:52:18;;;;;;;37.87;18.67;;;;;;;;;;5055793;28;20457;-72
2022/12/04 06:54:46;;;;;;;40.93;17.90;;;;;;;;;;5056304;28;20810;-71
2022/12/04 06:57:13;;;;;;;41.43;17.43;;;;;;;;;;5056886;28;20668;-72
2022/12/04 06:59:42;;;;;;;39.77;17.97;;;;;;;;;;5055613;28;20441;-72
2022/12/04 07:02:11;;;;;;;35.60;17.50;;;;;;;;;;5056791;28;20456;-72
2022/12/04 07:04:39;;;;;;;40.63;17.53;;;;;;;;;;5055961;28;20493;-72
2022/12/04 07:07:08;;;;;;;37.87;17.13;;;;;;;;;;5056383;28;20928;-72
2022/12/04 07:09:38;;;;;;;37.20;18.10;;;;;;;;;;5061467;28;20709;-72
2022/12/04 07:12:06;;;;;;;39.17;18.13;;;;;;;;;;5076532;28;20448;-72
2022/12/04 07:14:34;;;;;;;35.60;18.03;;;;;;;;;;5076685;28;20452;-72
2022/12/04 07:17:02;;;;;;;39.77;19.97;;;;;;;;;;5075952;28;20456;-72
2022/12/04 07:19:31;;;;;;;37.70;18.40;;;;;;;;;;5076375;28;20520;-72
2022/12/04 07:21:59;;;;;;;34.33;17.87;;;;;;;;;;5076233;28;20468;-72
2022/12/04 07:24:27;;;;;;;51.90;18.50;;;;;;;;;;5075685;28;20903;-72
2022/12/04 07:26:56;;;;;;;44.30;19.53;;;;;;;;;;5076038;28;20733;-72
2022/12/04 07:29:23;;;;;;;42.73;19.17;;;;;;;;;;5076231;28;20928;-72
2022/12/04 07:31:57;;;;;;;38.87;19.00;;;;;;;;;;5076850;28;20517;-72
2022/12/04 07:34:24;;;;;;;44.73;21.10;;;;;;;;;;5076002;28;20441;-72
2022/12/04 07:36:57;;;;;;;34.90;18.43;;;;;;;;;;5076517;28;20456;-72
2022/12/04 07:39:32;;;;;;;37.13;18.60;;;;;;;;;;5076299;28;20448;-73
2022/12/04 07:42:02;;;;;;;36.97;17.90;;;;;;;;;;5076533;28;20456;-73
2022/12/04 07:44:32;;;;;;;47.90;18.60;;;;;;;;;;5075729;28;20487;-72
2022/12/04 07:46:59;;;;;;;42.33;19.60;;;;;;;;;;5076186;28;20891;-72
2022/12/04 07:49:28;;;;;;;39.47;17.57;;;;;;;;;;5075444;28;20522;-72
2022/12/04 07:51:59;;;;;;;41.37;19.20;;;;;;;;;;5073735;28;20521;-72
2022/12/04 07:54:27;;;;;;;40.80;20.57;;;;;;;;;;5056912;28;20881;-72
2022/12/04 07:57:07;;;;;;;46.17;20.40;;;;;;;;;;5139353;27;20475;-72
2022/12/04 07:59:34;;;;;;;41.87;19.60;;;;;;;;;;5135760;27;20453;-72
2022/12/04 08:02:01;;;;;;;40.67;19.30;;;;;;;;;;5133632;27;20535;-72
2022/12/04 08:04:28;;;;;;;43.67;20.40;;;;;;;;;;5134684;27;20703;-72
2022/12/04 08:06:55;;;;;;;35.37;19.10;;;;;;;;;;5135078;27;20457;-72
2022/12/04 08:09:22;;;;;;;44.30;18.27;;;;;;;;;;5133810;27;20691;-72
2022/12/04 08:11:49;;;;;;;47.43;21.63;;;;;;;;;;5134162;27;20886;-72
2022/12/04 08:14:17;;;;;;;45.50;18.10;;;;;;;;;;5133985;27;20453;-72
2022/12/04 08:16:44;;;;;;;40.77;18.90;;;;;;;;;;5133481;27;20520;-72
2022/12/04 08:19:14;;;;;;;40.07;17.97;;;;;;;;;;5133767;27;20443;-71
2022/12/04 08:21:41;;;;;;;41.20;18.37;;;;;;;;;;5134028;27;20446;-72
2022/12/04 08:24:09;;;;;;;45.83;19.57;;;;;;;;;;5134726;27;20583;-72
2022/12/04 08:26:36;;;;;;;39.17;18.87;;;;;;;;;;5132459;27;20444;-72
2022/12/04 08:29:05;;;;;;;31.73;16.83;;;;;;;;;;5132592;27;20444;-72
2022/12/04 08:31:36;;;;;;;40.97;18.60;;;;;;;;;;5134621;27;20471;-72
2022/12/04 08:34:04;;;;;;;52.13;19.50;;;;;;;;;;5133484;27;20568;-72
2022/12/04 08:36:34;;;;;;;41.07;18.67;;;;;;;;;;5134254;27;20486;-72
2022/12/04 08:39:01;;;;;;;44.47;17.97;;;;;;;;;;5134534;27;20697;-72
2022/12/04 08:41:29;;;;;;;37.03;18.77;;;;;;;;;;5133339;27;20458;-72
2022/12/04 08:43:59;;;;;;;40.80;23.57;;;;;;;;;;5115576;27;20446;-72
2022/12/04 08:46:27;;;;;;;52.33;24.57;;;;;;;;;;5134208;27;20469;-73
2022/12/04 08:48:55;;;;;;;44.20;19.50;;;;;;;;;;5133363;27;20442;-72
2022/12/04 08:51:23;;;;;;;39.73;18.10;;;;;;;;;;5134214;27;20462;-72
2022/12/04 08:53:55;;;;;;;41.20;18.93;;;;;;;;;;5132906;27;20442;-73
2022/12/04 08:56:23;;;;;;;44.70;20.20;;;;;;;;;;5134896;27;20749;-73
2022/12/04 08:58:53;;;;;;;47.87;22.57;;;;;;;;;;5134057;27;20478;-73
2022/12/04 09:01:20;;;;;;;41.10;20.47;;;;;;;;;;5132870;27;20446;-72
2022/12/04 09:03:50;;;;;;;43.70;20.53;;;;;;;;;;5132934;27;20484;-72
2022/12/04 09:06:21;;;;;;;44.30;18.30;;;;;;;;;;5131821;27;20462;-73
2022/12/04 09:08:48;;;;;;;34.57;18.07;;;;;;;;;;5119708;27;20846;-73
2022/12/04 09:11:17;;;;;;;37.73;17.10;;;;;;;;;;5119464;27;20450;-72
2022/12/04 09:13:44;;;;;;;32.50;18.10;;;;;;;;;;5119502;27;20622;-72
2022/12/04 09:16:13;;;;;;;49.60;23.67;;;;;;;;;;5119412;27;20532;-72
2022/12/04 09:21:40;;;;;;;44.67;20.30;;;;;;;;;;5116336;27;20523;-73
2022/12/04 09:24:09;;;;;;;89.03;42.97;;;;;;;;;;5101893;28;20936;-72
2022/12/04 09:26:39;;;;;;;47.40;22.30;;;;;;;;;;5100397;28;20459;-71
2022/12/04 09:29:12;;;;;;;42.30;19.00;;;;;;;;;;5099750;28;20440;-72
2022/12/04 09:31:39;;;;;;;42.90;19.77;;;;;;;;;;5098100;28;20847;-72
2022/12/04 09:34:14;;;;;;;38.23;19.70;;;;;;;;;;5101235;28;20454;-72
2022/12/04 09:36:44;;;;;;;38.50;19.77;;;;;;;;;;5098521;28;20487;-73
2022/12/04 09:39:13;;;;;;;40.43;21.40;;;;;;;;;;5096892;28;20717;-73
2022/12/04 09:41:56;;;;;;;43.03;21.23;;;;;;;;;;5098771;28;20852;-73
2022/12/04 09:44:31;;;;;;;38.80;19.10;;;;;;;;;;5098507;28;20460;-72
2022/12/04 09:47:19;;;;;;;40.50;20.90;;;;;;;;;;5116650;27;20461;-73
2022/12/04 09:49:54;;;;;;;42.17;19.60;;;;;;;;;;5119483;27;20489;-73
2022/12/04 09:52:30;;;;;;;41.53;18.90;;;;;;;;;;5116710;27;20453;-72
2022/12/04 09:54:59;;;;;;;40.20;20.07;;;;;;;;;;5118193;27;20457;-72
2022/12/04 09:57:31;;;;;;;42.23;19.13;;;;;;;;;;5117981;27;20454;-72
2022/12/04 10:00:03;;;;;;;54.50;21.47;;;;;;;;;;5116718;27;20463;-71
2022/12/04 10:02:34;;;;;;;40.17;18.77;;;;;;;;;;5117500;27;20869;-72
2022/12/04 10:05:03;;;;;;;33.40;17.90;;;;;;;;;;5116393;27;20498;-72
2022/12/04 10:07:38;;;;;;;41.53;20.00;;;;;;;;;;5117168;27;20486;-72
2022/12/04 10:10:12;;;;;;;34.67;18.87;;;;;;;;;;5117743;27;20961;-72
2022/12/04 10:12:43;;;;;;;174.57;81.60;;;;;;;;;;5118402;27;20533;-72
2022/12/04 10:15:20;;;;;;;45.70;20.97;;;;;;;;;;5118255;27;20567;-72
2022/12/04 10:18:01;;;;;;;47.10;20.83;;;;;;;;;;5118174;27;20446;-72
2022/12/04 10:20:35;;;;;;;36.80;16.60;;;;;;;;;;5116360;27;20770;-72
2022/12/04 10:23:06;;;;;;;42.57;19.73;;;;;;;;;;5118989;27;20518;-72
2022/12/04 10:25:35;;;;;;;42.30;21.17;;;;;;;;;;5101588;28;20957;-72
2022/12/04 10:28:06;;;;;;;42.27;22.00;;;;;;;;;;5100139;28;20443;-71
2022/12/04 10:30:35;;;;;;;38.80;21.13;;;;;;;;;;5099301;28;20461;-72
2022/12/04 10:33:05;;;;;;;42.67;18.43;;;;;;;;;;5100920;28;20447;-72
2022/12/04 10:35:34;;;;;;;35.63;17.53;;;;;;;;;;5099678;28;20502;-72
2022/12/04 10:38:03;;;;;;;44.13;20.80;;;;;;;;;;5099684;28;20470;-72
2022/12/04 10:40:32;;;;;;;36.13;19.90;;;;;;;;;;5098867;28;20486;-72
2022/12/04 10:43:03;;;;;;;36.70;18.77;;;;;;;;;;5117934;27;20557;-71
2022/12/04 10:45:33;;;;;;;37.07;16.87;;;;;;;;;;5102393;28;20466;-72
2022/12/04 10:48:06;;;;;;;47.63;22.37;;;;;;;;;;5098267;28;20520;-73
2022/12/04 10:50:34;;;;;;;44.23;20.03;;;;;;;;;;5101867;27;20518;-72
2022/12/04 10:53:01;;;;;;;38.30;21.63;;;;;;;;;;5116428;27;20510;-72
2022/12/04 10:55:29;;;;;;;40.93;20.53;;;;;;;;;;5117663;27;20490;-72
2022/12/04 10:57:57;;;;;;;42.30;19.23;;;;;;;;;;5116519;28;20470;-72
2022/12/04 11:00:26;;;;;;;39.77;19.50;;;;;;;;;;5116952;27;20796;-72
2022/12/04 11:02:54;;;;;;;34.67;17.40;;;;;;;;;;5115276;27;20444;-72
2022/12/04 11:05:24;;;;;;;39.27;19.53;;;;;;;;;;5116293;27;20454;-73
2022/12/04 11:07:53;;;;;;;40.93;20.30;;;;;;;;;;5116698;27;20534;-73
2022/12/04 11:10:22;;;;;;;33.90;17.17;;;;;;;;;;5113597;27;20447;-72
2022/12/04 11:12:56;;;;;;;42.97;20.60;;;;;;;;;;5095968;28;20530;-72
2022/12/04 11:15:24;;;;;;;33.10;16.77;;;;;;;;;;5094151;28;20479;-72
2022/12/04 11:18:06;;;;;;;40.53;18.67;;;;;;;;;;5095496;28;20478;-72
2022/12/04 11:20:34;;;;;;;34.73;16.80;;;;;;;;;;5097869;28;20798;-72
2022/12/04 11:23:04;;;;;;;37.30;17.73;;;;;;;;;;5095946;28;20543;-72
2022/12/04 11:28:41;;;;;;;38.30;18.43;;;;;;;;;;5104169;27;20551;-72
2022/12/04 11:31:10;;;;;;;42.27;20.07;;;;;;;;;;5113772;27;20454;-72
2022/12/04 11:33:47;;;;;;;43.93;20.30;;;;;;;;;;5105005;28;20442;-72
2022/12/04 11:36:19;;;;;;;39.70;18.40;;;;;;;;;;5110579;27;20578;-72
2022/12/04 11:38:46;;;;;;;44.90;19.03;;;;;;;;;;5115152;27;20566;-72
2022/12/04 11:41:24;;;;;;;44.37;19.43;;;;;;;;;;5111236;27;20454;-73
2022/12/04 11:43:51;;;;;;;37.87;18.70;;;;;;;;;;5103280;27;20456;-72
2022/12/04 11:47:00;;;;;;;39.43;18.53;;;;;;;;;;5095646;28;20565;-71
2022/12/04 11:49:34;;;;;;;37.83;17.63;;;;;;;;;;5109330;27;20527;-73
2022/12/04 11:52:19;;;;;;;47.20;19.80;;;;;;;;;;5116043;27;20443;-71
2022/12/04 11:55:11;;;;;;;45.30;18.17;;;;;;;;;;5093881;28;20514;-71
2022/12/04 12:00:36;;;;;;;39.03;18.37;;;;;;;;;;5110376;27;20463;-71
2022/12/04 12:03:17;;;;;;;29.67;15.37;;;;;;;;;;5115936;28;20447;-72
2022/12/04 12:09:19;;;;;;;37.83;17.87;;;;;;;;;;5028467;28;20753;-71
2022/12/04 12:14:56;;;;;;;37.43;20.60;;;;;;;;;;5011587;28;20453;-73
2022/12/04 12:17:35;;;;;;;40.47;18.10;;;;;;;;;;5013381;28;20451;-73
2022/12/04 12:20:24;;;;;;;33.23;18.93;;;;;;;;;;5053806;28;20525;-70
2022/12/04 12:23:10;;;;;;;32.43;16.43;;;;;;;;;;5109259;27;20464;-72
2022/12/04 12:25:57;;;;;;;40.07;18.20;;;;;;;;;;5118650;27;20462;-70
2022/12/04 12:28:36;;;;;;;45.80;22.10;;;;;;;;;;5117969;28;20511;-72
2022/12/04 12:31:19;;;;;;;33.03;17.10;;;;;;;;;;5112943;28;20539;-71
2022/12/04 12:33:49;;;;;;;42.07;20.60;;;;;;;;;;5100593;27;20469;-72
2022/12/04 12:36:29;;;;;;;46.90;18.20;;;;;;;;;;5095086;28;20480;-72
2022/12/04 12:38:59;;;;;;;35.00;18.87;;;;;;;;;;5107470;28;20497;-73
2022/12/04 12:41:35;;;;;;;33.97;18.87;;;;;;;;;;5109409;27;20446;-72
2022/12/04 12:44:17;;;;;;;38.03;18.00;;;;;;;;;;5113863;27;20465;-73
2022/12/04 12:46:50;;;;;;;35.33;18.93;;;;;;;;;;5112797;27;20761;-73
2022/12/04 12:49:34;;;;;;;31.60;17.87;;;;;;;;;;5118731;27;20561;-73
2022/12/04 12:52:05;;;;;;;38.70;19.63;;;;;;;;;;5115687;27;20508;-73
2022/12/04 12:54:50;;;;;;;42.07;18.17;;;;;;;;;;5108705;28;20461;-73
2022/12/04 13:00:42;;;;;;;;;;;;;;;;;;;;;
2022/12/04 13:21:34;;;;;;;37.67;19.27;;;;;;;;;;5024924;28;20526;-73
2022/12/04 13:28:12;;;;;;;;;;;;;;;;;;;;;
2022/12/04 13:52:41;;;;;;;32.47;17.10;;;;;;;;;;4983447;28;20467;-72
2022/12/04 13:55:42;;;;;;;31.00;17.90;;;;;;;;;;5031792;28;21050;-72
2022/12/04 13:58:36;;;;;;;38.60;18.40;;;;;;;;;;4962483;28;20605;-71
2022/12/04 14:04:56;;;;;;;30.63;17.27;;;;;;;;;;5040748;28;20447;-73
2022/12/04 14:07:38;;;;;;;48.03;22.40;;;;;;;;;;5077729;28;20887;-71
2022/12/04 14:13:02;;;;;;;39.70;18.07;;;;;;;;;;5094323;28;20452;-71
2022/12/04 14:15:41;;;;;;;33.73;18.90;;;;;;;;;;5091185;28;20598;-72
2022/12/04 14:27:56;;;;;;;;;;;;;;;;;;;;;
2022/12/04 14:30:41;;;;;;;41.70;22.00;;;;;;;;;;5084616;28;20460;-71
2022/12/04 14:36:49;;;;;;;34.63;18.93;;;;;;;;;;5081790;28;20498;-71
2022/12/04 14:42:41;;;;;;;28.60;17.73;;;;;;;;;;5084275;28;20447;-72
2022/12/04 14:45:28;;;;;;;33.90;17.80;;;;;;;;;;5097001;28;21109;-73
2022/12/04 14:48:14;;;;;;;34.23;17.60;;;;;;;;;;5095224;28;20444;-71
2022/12/04 14:59:49;;;;;;;38.00;19.80;;;;;;;;;;5066697;28;20471;-71
2022/12/04 15:18:24;;;;;;;;;;;;;;;;;;;;;
2022/12/04 15:30:48;;;;;;;;;;;;;;;;;;;;;
2022/12/04 15:33:25;;;;;;;35.03;17.30;;;;;;;;;;5053661;28;20463;-72
2022/12/04 15:36:04;;;;;;;41.90;19.37;;;;;;;;;;5067262;28;20914;-71
2022/12/04 15:41:47;;;;;;;34.40;17.23;;;;;;;;;;5055058;28;20447;-70
2022/12/04 15:44:47;;;;;;;31.33;17.00;;;;;;;;;;5067243;28;20473;-71
2022/12/04 15:56:53;;;;;;;47.60;22.80;;;;;;;;;;5061862;28;20511;-71
2022/12/04 16:05:45;;;;;;;122.37;54.43;;;;;;;;;;5067257;28;20506;-71
2022/12/04 16:14:39;;;;;;;45.43;23.50;;;;;;;;;;5062800;28;20436;-71
2022/12/04 16:17:07;;;;;;;38.93;20.27;;;;;;;;;;5070853;28;20786;-72
2022/12/04 16:19:48;;;;;;;28.80;14.43;;;;;;;;;;5059003;28;20461;-72
2022/12/04 16:28:08;;;;;;;30.77;15.63;;;;;;;;;;5065767;28;20483;-72
2022/12/04 16:30:50;;;;;;;34.47;19.90;;;;;;;;;;5077151;28;20453;-72
2022/12/04 16:36:45;;;;;;;32.43;16.87;;;;;;;;;;5068833;28;20472;-72
2022/12/04 16:39:23;;;;;;;23.70;14.60;;;;;;;;;;5058117;28;20833;-71
2022/12/04 16:42:01;;;;;;;35.17;18.20;;;;;;;;;;5070101;28;20483;-72
2022/12/04 16:44:35;;;;;;;33.93;17.20;;;;;;;;;;5070010;28;20456;-72
2022/12/04 16:47:13;;;;;;;30.27;16.90;;;;;;;;;;5070248;28;21869;-72
2022/12/04 16:49:49;;;;;;;32.93;18.10;;;;;;;;;;5066852;28;20460;-73
2022/12/04 16:52:20;;;;;;;34.00;16.27;;;;;;;;;;5069512;28;20500;-72
2022/12/04 16:55:11;;;;;;;27.50;14.93;;;;;;;;;;5074697;28;20559;-72
2022/12/04 16:58:06;;;;;;;29.50;17.80;;;;;;;;;;5064343;28;20485;-72
2022/12/04 17:00:42;;;;;;;28.93;13.93;;;;;;;;;;5058881;28;20818;-73
2022/12/04 17:06:13;;;;;;;32.80;17.20;;;;;;;;;;5059214;28;20459;-72
2022/12/04 17:08:54;;;;;;;35.77;17.93;;;;;;;;;;5076343;28;20476;-72
2022/12/04 17:11:24;;;;;;;32.83;15.83;;;;;;;;;;5065664;28;20552;-71
2022/12/04 17:16:40;;;;;;;24.53;14.87;;;;;;;;;;5075556;28;20488;-71
2022/12/04 17:19:25;;;;;;;27.73;14.90;;;;;;;;;;5076648;28;20462;-71
2022/12/04 17:21:57;;;;;;;26.50;14.17;;;;;;;;;;5077219;28;20464;-71
2022/12/04 17:24:29;;;;;;;31.60;17.07;;;;;;;;;;5076210;28;20479;-73
2022/12/04 17:27:13;;;;;;;29.40;16.83;;;;;;;;;;5063306;28;20581;-71
2022/12/04 17:29:59;;;;;;;27.80;17.50;;;;;;;;;;5058803;28;20474;-72
2022/12/04 17:32:48;;;;;;;26.80;16.50;;;;;;;;;;5086800;28;20554;-72
2022/12/04 17:35:43;;;;;;;27.67;15.30;;;;;;;;;;5084564;28;20448;-71
2022/12/04 17:41:08;;;;;;;33.23;16.50;;;;;;;;;;5065631;28;20463;-73
2022/12/04 17:43:47;;;;;;;31.43;18.20;;;;;;;;;;5078454;28;20463;-72